sensor_id;sensor_type;location;lat;lon;timestamp;P1;durP1;ratioP1;P2;durP2;ratioP2
13408;SDS011;6775;49.574;11.170;2022-12-18T00:01:27;19.33;;;10.23;;
13408;SDS011;6775;49.574;11.170;2022-12-18T00:03:58;22.53;;;11.27;;
13408;SDS011;6775;49.574;11.170;2022-12-18T00:06:26;21.80;;;11.07;;
13408;SDS011;6775;49.574;11.170;2022-12-18T00:08:56;16.90;;;12.17;;
13408;SDS011;6775;49.574;11.170;2022-12-18T00:11:26;25.03;;;12.50;;
13408;SDS011;6775;49.574;11.170;2022-12-18T00:13:55;22.63;;;11.40;;
13408;SDS011;6775;49.574;11.170;2022-12-18T00:16:25;17.23;;;10.37;;
13408;SDS011;6775;49.574;11.170;2022-12-18T00:18:56;22.80;;;12.03;;
13408;SDS011;6775;49.574;11.170;2022-12-18T00:21:24;26.13;;;12.63;;
13408;SDS011;6775;49.574;11.170;2022-12-18T00:23:53;27.03;;;10.17;;
13408;SDS011;6775;49.574;11.170;2022-12-18T00:26:21;15.30;;;9.30;;
13408;SDS011;6775;49.574;11.170;2022-12-18T00:28:51;23.57;;;10.27;;
13408;SDS011;6775;49.574;11.170;2022-12-18T00:31:20;19.80;;;10.87;;
13408;SDS011;6775;49.574;11.170;2022-12-18T00:33:50;17.00;;;9.43;;
13408;SDS011;6775;49.574;11.170;2022-12-18T00:36:21;17.27;;;10.83;;
13408;SDS011;6775;49.574;11.170;2022-12-18T00:38:50;14.40;;;9.17;;
13408;SDS011;6775;49.574;11.170;2022-12-18T00:41:20;18.90;;;9.63;;
13408;SDS011;6775;49.574;11.170;2022-12-18T00:44:02;24.70;;;10.00;;
13408;SDS011;6775;49.574;11.170;2022-12-18T00:46:30;21.37;;;10.63;;
13408;SDS011;6775;49.574;11.170;2022-12-18T00:49:00;16.63;;;9.20;;
13408;SDS011;6775;49.574;11.170;2022-12-18T00:51:28;16.43;;;8.47;;
13408;SDS011;6775;49.574;11.170;2022-12-18T00:53:56;16.67;;;8.77;;
13408;SDS011;6775;49.574;11.170;2022-12-18T00:56:24;12.77;;;6.83;;
13408;SDS011;6775;49.574;11.170;2022-12-18T00:58:52;11.00;;;6.20;;
13408;SDS011;6775;49.574;11.170;2022-12-18T01:01:20;10.90;;;5.73;;
13408;SDS011;6775;49.574;11.170;2022-12-18T01:03:48;14.53;;;6.83;;
13408;SDS011;6775;49.574;11.170;2022-12-18T01:06:17;11.90;;;6.43;;
13408;SDS011;6775;49.574;11.170;2022-12-18T01:08:45;13.17;;;6.60;;
13408;SDS011;6775;49.574;11.170;2022-12-18T01:11:13;13.93;;;6.87;;
13408;SDS011;6775;49.574;11.170;2022-12-18T01:13:42;13.57;;;7.37;;
13408;SDS011;6775;49.574;11.170;2022-12-18T01:16:11;15.03;;;7.77;;
13408;SDS011;6775;49.574;11.170;2022-12-18T01:18:39;13.60;;;8.03;;
13408;SDS011;6775;49.574;11.170;2022-12-18T01:21:07;14.87;;;8.77;;
13408;SDS011;6775;49.574;11.170;2022-12-18T01:23:37;21.60;;;9.30;;
13408;SDS011;6775;49.574;11.170;2022-12-18T01:26:06;17.17;;;9.13;;
13408;SDS011;6775;49.574;11.170;2022-12-18T01:28:35;18.27;;;8.83;;
13408;SDS011;6775;49.574;11.170;2022-12-18T01:31:15;16.57;;;8.77;;
13408;SDS011;6775;49.574;11.170;2022-12-18T01:33:45;20.37;;;8.40;;
13408;SDS011;6775;49.574;11.170;2022-12-18T01:36:16;15.33;;;9.17;;
13408;SDS011;6775;49.574;11.170;2022-12-18T01:38:47;21.40;;;9.40;;
13408;SDS011;6775;49.574;11.170;2022-12-18T01:41:16;16.47;;;9.17;;
13408;SDS011;6775;49.574;11.170;2022-12-18T01:43:49;17.03;;;7.90;;
13408;SDS011;6775;49.574;11.170;2022-12-18T01:46:20;22.37;;;9.47;;
13408;SDS011;6775;49.574;11.170;2022-12-18T01:48:52;12.37;;;8.43;;
13408;SDS011;6775;49.574;11.170;2022-12-18T01:51:23;14.13;;;7.73;;
13408;SDS011;6775;49.574;11.170;2022-12-18T01:53:54;15.50;;;8.07;;
13408;SDS011;6775;49.574;11.170;2022-12-18T01:56:22;15.80;;;9.07;;
13408;SDS011;6775;49.574;11.170;2022-12-18T01:58:51;16.03;;;8.80;;
13408;SDS011;6775;49.574;11.170;2022-12-18T02:01:24;14.70;;;8.60;;
13408;SDS011;6775;49.574;11.170;2022-12-18T02:03:53;13.37;;;7.87;;
13408;SDS011;6775;49.574;11.170;2022-12-18T02:06:22;15.93;;;8.27;;
13408;SDS011;6775;49.574;11.170;2022-12-18T02:09:02;13.20;;;8.87;;
13408;SDS011;6775;49.574;11.170;2022-12-18T02:11:39;15.93;;;10.10;;
13408;SDS011;6775;49.574;11.170;2022-12-18T02:14:17;23.10;;;8.27;;
13408;SDS011;6775;49.574;11.170;2022-12-18T02:16:51;17.40;;;10.00;;
13408;SDS011;6775;49.574;11.170;2022-12-18T02:19:28;13.17;;;7.67;;
13408;SDS011;6775;49.574;11.170;2022-12-18T02:22:12;16.13;;;7.97;;
13408;SDS011;6775;49.574;11.170;2022-12-18T02:25:03;11.00;;;6.90;;
13408;SDS011;6775;49.574;11.170;2022-12-18T02:27:42;9.00;;;5.63;;
13408;SDS011;6775;49.574;11.170;2022-12-18T02:30:13;19.87;;;8.70;;
13408;SDS011;6775;49.574;11.170;2022-12-18T02:32:43;10.20;;;5.60;;
13408;SDS011;6775;49.574;11.170;2022-12-18T02:35:15;10.93;;;6.57;;
13408;SDS011;6775;49.574;11.170;2022-12-18T02:37:46;13.73;;;6.50;;
13408;SDS011;6775;49.574;11.170;2022-12-18T02:40:15;19.03;;;7.00;;
13408;SDS011;6775;49.574;11.170;2022-12-18T02:42:46;22.60;;;8.77;;
13408;SDS011;6775;49.574;11.170;2022-12-18T02:45:13;14.03;;;9.17;;
13408;SDS011;6775;49.574;11.170;2022-12-18T02:47:42;15.40;;;7.93;;
13408;SDS011;6775;49.574;11.170;2022-12-18T02:50:13;23.97;;;10.23;;
13408;SDS011;6775;49.574;11.170;2022-12-18T02:52:51;20.03;;;9.87;;
13408;SDS011;6775;49.574;11.170;2022-12-18T02:55:29;13.53;;;7.87;;
13408;SDS011;6775;49.574;11.170;2022-12-18T02:58:10;15.17;;;9.87;;
13408;SDS011;6775;49.574;11.170;2022-12-18T03:00:47;15.13;;;8.77;;
13408;SDS011;6775;49.574;11.170;2022-12-18T03:03:22;15.63;;;9.07;;
13408;SDS011;6775;49.574;11.170;2022-12-18T03:05:57;15.83;;;7.83;;
13408;SDS011;6775;49.574;11.170;2022-12-18T03:08:30;13.23;;;7.67;;
13408;SDS011;6775;49.574;11.170;2022-12-18T03:11:02;12.77;;;6.70;;
13408;SDS011;6775;49.574;11.170;2022-12-18T03:13:34;12.57;;;7.67;;
13408;SDS011;6775;49.574;11.170;2022-12-18T03:16:05;18.97;;;8.63;;
13408;SDS011;6775;49.574;11.170;2022-12-18T03:18:37;20.30;;;8.17;;
13408;SDS011;6775;49.574;11.170;2022-12-18T03:21:07;18.73;;;9.43;;
13408;SDS011;6775;49.574;11.170;2022-12-18T03:23:39;14.87;;;8.97;;
13408;SDS011;6775;49.574;11.170;2022-12-18T03:26:11;24.23;;;9.37;;
13408;SDS011;6775;49.574;11.170;2022-12-18T03:28:44;18.93;;;7.57;;
13408;SDS011;6775;49.574;11.170;2022-12-18T03:31:16;18.90;;;8.93;;
13408;SDS011;6775;49.574;11.170;2022-12-18T03:33:51;21.30;;;10.13;;
13408;SDS011;6775;49.574;11.170;2022-12-18T03:36:20;21.10;;;8.27;;
13408;SDS011;6775;49.574;11.170;2022-12-18T03:38:50;12.57;;;7.07;;
13408;SDS011;6775;49.574;11.170;2022-12-18T03:41:19;16.23;;;7.17;;
13408;SDS011;6775;49.574;11.170;2022-12-18T03:43:57;16.77;;;9.07;;
13408;SDS011;6775;49.574;11.170;2022-12-18T03:46:33;16.23;;;8.60;;
13408;SDS011;6775;49.574;11.170;2022-12-18T03:49:09;15.70;;;8.53;;
13408;SDS011;6775;49.574;11.170;2022-12-18T03:51:40;19.57;;;7.90;;
13408;SDS011;6775;49.574;11.170;2022-12-18T03:54:15;15.03;;;7.67;;
13408;SDS011;6775;49.574;11.170;2022-12-18T03:56:45;14.93;;;6.73;;
13408;SDS011;6775;49.574;11.170;2022-12-18T03:59:18;17.97;;;7.27;;
13408;SDS011;6775;49.574;11.170;2022-12-18T04:01:47;17.93;;;7.53;;
13408;SDS011;6775;49.574;11.170;2022-12-18T04:04:17;15.70;;;7.13;;
13408;SDS011;6775;49.574;11.170;2022-12-18T04:06:47;12.23;;;7.57;;
13408;SDS011;6775;49.574;11.170;2022-12-18T04:09:17;17.17;;;8.80;;
13408;SDS011;6775;49.574;11.170;2022-12-18T04:11:46;14.97;;;6.83;;
13408;SDS011;6775;49.574;11.170;2022-12-18T04:14:14;11.27;;;6.47;;
13408;SDS011;6775;49.574;11.170;2022-12-18T04:16:45;14.20;;;7.40;;
13408;SDS011;6775;49.574;11.170;2022-12-18T04:19:13;9.50;;;5.53;;
13408;SDS011;6775;49.574;11.170;2022-12-18T04:21:41;11.87;;;6.30;;
13408;SDS011;6775;49.574;11.170;2022-12-18T04:24:09;11.00;;;7.13;;
13408;SDS011;6775;49.574;11.170;2022-12-18T04:26:36;14.00;;;7.07;;
13408;SDS011;6775;49.574;11.170;2022-12-18T04:29:04;10.43;;;6.27;;
13408;SDS011;6775;49.574;11.170;2022-12-18T04:31:32;8.47;;;6.10;;
13408;SDS011;6775;49.574;11.170;2022-12-18T04:34:02;10.93;;;5.93;;
13408;SDS011;6775;49.574;11.170;2022-12-18T04:36:30;11.37;;;5.77;;
13408;SDS011;6775;49.574;11.170;2022-12-18T04:38:58;10.33;;;7.10;;
13408;SDS011;6775;49.574;11.170;2022-12-18T04:41:25;11.70;;;7.17;;
13408;SDS011;6775;49.574;11.170;2022-12-18T04:43:53;10.93;;;5.83;;
13408;SDS011;6775;49.574;11.170;2022-12-18T04:46:21;13.37;;;6.67;;
13408;SDS011;6775;49.574;11.170;2022-12-18T04:48:49;12.37;;;5.97;;
13408;SDS011;6775;49.574;11.170;2022-12-18T04:51:18;12.00;;;6.30;;
13408;SDS011;6775;49.574;11.170;2022-12-18T04:53:51;9.03;;;6.83;;
13408;SDS011;6775;49.574;11.170;2022-12-18T04:56:20;11.20;;;5.80;;
13408;SDS011;6775;49.574;11.170;2022-12-18T04:58:48;14.47;;;6.30;;
13408;SDS011;6775;49.574;11.170;2022-12-18T05:01:16;13.10;;;7.17;;
13408;SDS011;6775;49.574;11.170;2022-12-18T05:03:45;15.77;;;7.20;;
13408;SDS011;6775;49.574;11.170;2022-12-18T05:06:13;13.17;;;6.93;;
13408;SDS011;6775;49.574;11.170;2022-12-18T05:08:43;11.10;;;6.63;;
13408;SDS011;6775;49.574;11.170;2022-12-18T05:11:13;14.47;;;7.20;;
13408;SDS011;6775;49.574;11.170;2022-12-18T05:13:42;12.60;;;6.30;;
13408;SDS011;6775;49.574;11.170;2022-12-18T05:16:11;15.23;;;8.20;;
13408;SDS011;6775;49.574;11.170;2022-12-18T05:18:40;12.77;;;6.43;;
13408;SDS011;6775;49.574;11.170;2022-12-18T05:21:08;13.67;;;7.80;;
13408;SDS011;6775;49.574;11.170;2022-12-18T05:23:36;11.97;;;7.30;;
13408;SDS011;6775;49.574;11.170;2022-12-18T05:26:06;11.80;;;6.30;;
13408;SDS011;6775;49.574;11.170;2022-12-18T05:28:35;10.53;;;6.23;;
13408;SDS011;6775;49.574;11.170;2022-12-18T05:31:03;12.53;;;6.83;;
13408;SDS011;6775;49.574;11.170;2022-12-18T05:33:33;15.03;;;7.30;;
13408;SDS011;6775;49.574;11.170;2022-12-18T05:36:02;9.50;;;5.67;;
13408;SDS011;6775;49.574;11.170;2022-12-18T05:38:33;11.77;;;6.37;;
13408;SDS011;6775;49.574;11.170;2022-12-18T05:41:02;12.17;;;6.40;;
13408;SDS011;6775;49.574;11.170;2022-12-18T05:43:33;12.83;;;7.03;;
13408;SDS011;6775;49.574;11.170;2022-12-18T05:46:05;12.83;;;5.47;;
13408;SDS011;6775;49.574;11.170;2022-12-18T05:48:34;18.23;;;8.00;;
13408;SDS011;6775;49.574;11.170;2022-12-18T05:51:04;15.37;;;7.00;;
13408;SDS011;6775;49.574;11.170;2022-12-18T05:53:33;11.87;;;6.47;;
13408;SDS011;6775;49.574;11.170;2022-12-18T05:56:03;13.67;;;6.70;;
13408;SDS011;6775;49.574;11.170;2022-12-18T05:58:34;18.47;;;6.90;;
13408;SDS011;6775;49.574;11.170;2022-12-18T06:01:06;10.43;;;5.87;;
13408;SDS011;6775;49.574;11.170;2022-12-18T06:03:36;13.53;;;7.47;;
13408;SDS011;6775;49.574;11.170;2022-12-18T06:06:11;13.30;;;6.40;;
13408;SDS011;6775;49.574;11.170;2022-12-18T06:08:40;12.40;;;6.87;;
13408;SDS011;6775;49.574;11.170;2022-12-18T06:11:11;16.53;;;8.10;;
13408;SDS011;6775;49.574;11.170;2022-12-18T06:13:41;15.37;;;8.87;;
13408;SDS011;6775;49.574;11.170;2022-12-18T06:16:09;11.17;;;7.27;;
13408;SDS011;6775;49.574;11.170;2022-12-18T06:18:37;14.40;;;7.70;;
13408;SDS011;6775;49.574;11.170;2022-12-18T06:21:05;14.87;;;7.80;;
13408;SDS011;6775;49.574;11.170;2022-12-18T06:23:33;11.33;;;5.93;;
13408;SDS011;6775;49.574;11.170;2022-12-18T06:26:05;14.70;;;8.23;;
13408;SDS011;6775;49.574;11.170;2022-12-18T06:28:35;16.53;;;8.87;;
13408;SDS011;6775;49.574;11.170;2022-12-18T06:31:05;16.03;;;9.10;;
13408;SDS011;6775;49.574;11.170;2022-12-18T06:33:33;12.13;;;7.73;;
13408;SDS011;6775;49.574;11.170;2022-12-18T06:36:03;21.47;;;7.77;;
13408;SDS011;6775;49.574;11.170;2022-12-18T06:38:32;16.90;;;7.97;;
13408;SDS011;6775;49.574;11.170;2022-12-18T06:41:05;13.60;;;6.67;;
13408;SDS011;6775;49.574;11.170;2022-12-18T06:43:34;12.43;;;6.20;;
13408;SDS011;6775;49.574;11.170;2022-12-18T06:46:05;14.67;;;7.37;;
13408;SDS011;6775;49.574;11.170;2022-12-18T06:48:33;8.17;;;5.67;;
13408;SDS011;6775;49.574;11.170;2022-12-18T06:51:01;15.87;;;7.60;;
13408;SDS011;6775;49.574;11.170;2022-12-18T06:53:30;15.77;;;7.40;;
13408;SDS011;6775;49.574;11.170;2022-12-18T06:55:59;20.20;;;8.37;;
13408;SDS011;6775;49.574;11.170;2022-12-18T06:58:35;14.67;;;7.70;;
13408;SDS011;6775;49.574;11.170;2022-12-18T07:01:05;16.37;;;8.27;;
13408;SDS011;6775;49.574;11.170;2022-12-18T07:03:34;17.20;;;7.70;;
13408;SDS011;6775;49.574;11.170;2022-12-18T07:06:03;16.73;;;7.27;;
13408;SDS011;6775;49.574;11.170;2022-12-18T07:08:32;18.17;;;9.03;;
13408;SDS011;6775;49.574;11.170;2022-12-18T07:11:02;15.40;;;8.50;;
13408;SDS011;6775;49.574;11.170;2022-12-18T07:13:31;15.30;;;6.83;;
13408;SDS011;6775;49.574;11.170;2022-12-18T07:16:04;19.97;;;8.97;;
13408;SDS011;6775;49.574;11.170;2022-12-18T07:18:42;16.60;;;8.07;;
13408;SDS011;6775;49.574;11.170;2022-12-18T07:21:12;15.80;;;6.87;;
13408;SDS011;6775;49.574;11.170;2022-12-18T07:23:41;18.83;;;7.87;;
13408;SDS011;6775;49.574;11.170;2022-12-18T07:26:10;20.33;;;9.77;;
13408;SDS011;6775;49.574;11.170;2022-12-18T07:28:40;18.93;;;8.07;;
13408;SDS011;6775;49.574;11.170;2022-12-18T07:31:10;18.20;;;8.53;;
13408;SDS011;6775;49.574;11.170;2022-12-18T07:33:40;15.87;;;8.57;;
13408;SDS011;6775;49.574;11.170;2022-12-18T07:36:09;14.00;;;8.50;;
13408;SDS011;6775;49.574;11.170;2022-12-18T07:38:37;21.20;;;9.67;;
13408;SDS011;6775;49.574;11.170;2022-12-18T07:41:06;17.50;;;9.17;;
13408;SDS011;6775;49.574;11.170;2022-12-18T07:43:35;17.27;;;9.10;;
13408;SDS011;6775;49.574;11.170;2022-12-18T07:46:05;19.43;;;10.10;;
13408;SDS011;6775;49.574;11.170;2022-12-18T07:48:35;18.93;;;9.10;;
13408;SDS011;6775;49.574;11.170;2022-12-18T07:51:03;17.40;;;8.20;;
13408;SDS011;6775;49.574;11.170;2022-12-18T07:53:32;15.20;;;8.27;;
13408;SDS011;6775;49.574;11.170;2022-12-18T07:56:03;15.33;;;8.83;;
13408;SDS011;6775;49.574;11.170;2022-12-18T07:58:53;20.70;;;10.97;;
13408;SDS011;6775;49.574;11.170;2022-12-18T08:01:21;22.50;;;10.57;;
13408;SDS011;6775;49.574;11.170;2022-12-18T08:03:50;21.33;;;10.83;;
13408;SDS011;6775;49.574;11.170;2022-12-18T08:06:18;24.10;;;11.13;;
13408;SDS011;6775;49.574;11.170;2022-12-18T08:08:50;19.10;;;10.20;;
13408;SDS011;6775;49.574;11.170;2022-12-18T08:11:18;22.97;;;10.47;;
13408;SDS011;6775;49.574;11.170;2022-12-18T08:13:46;22.20;;;10.83;;
13408;SDS011;6775;49.574;11.170;2022-12-18T08:16:15;20.60;;;9.70;;
13408;SDS011;6775;49.574;11.170;2022-12-18T08:18:43;24.27;;;10.83;;
13408;SDS011;6775;49.574;11.170;2022-12-18T08:21:13;18.43;;;10.33;;
13408;SDS011;6775;49.574;11.170;2022-12-18T08:23:42;16.13;;;8.60;;
13408;SDS011;6775;49.574;11.170;2022-12-18T08:26:11;19.37;;;9.23;;
13408;SDS011;6775;49.574;11.170;2022-12-18T08:28:40;20.50;;;9.27;;
13408;SDS011;6775;49.574;11.170;2022-12-18T08:31:09;16.40;;;8.80;;
13408;SDS011;6775;49.574;11.170;2022-12-18T08:33:37;15.80;;;9.27;;
13408;SDS011;6775;49.574;11.170;2022-12-18T08:36:07;16.53;;;8.90;;
13408;SDS011;6775;49.574;11.170;2022-12-18T08:38:37;17.80;;;9.00;;
13408;SDS011;6775;49.574;11.170;2022-12-18T08:41:07;22.60;;;9.00;;
13408;SDS011;6775;49.574;11.170;2022-12-18T08:43:37;19.27;;;9.13;;
13408;SDS011;6775;49.574;11.170;2022-12-18T08:46:23;18.87;;;8.43;;
13408;SDS011;6775;49.574;11.170;2022-12-18T08:48:53;15.23;;;8.27;;
13408;SDS011;6775;49.574;11.170;2022-12-18T08:51:22;14.63;;;8.27;;
13408;SDS011;6775;49.574;11.170;2022-12-18T08:53:51;19.27;;;9.43;;
13408;SDS011;6775;49.574;11.170;2022-12-18T08:56:19;16.73;;;8.60;;
13408;SDS011;6775;49.574;11.170;2022-12-18T08:58:47;14.83;;;8.47;;
13408;SDS011;6775;49.574;11.170;2022-12-18T09:01:18;22.40;;;10.40;;
13408;SDS011;6775;49.574;11.170;2022-12-18T09:03:46;21.77;;;11.70;;
13408;SDS011;6775;49.574;11.170;2022-12-18T09:06:15;19.83;;;9.17;;
13408;SDS011;6775;49.574;11.170;2022-12-18T09:08:43;16.83;;;9.07;;
13408;SDS011;6775;49.574;11.170;2022-12-18T09:11:14;15.50;;;8.03;;
13408;SDS011;6775;49.574;11.170;2022-12-18T09:13:46;19.90;;;8.93;;
13408;SDS011;6775;49.574;11.170;2022-12-18T09:16:14;18.77;;;8.93;;
13408;SDS011;6775;49.574;11.170;2022-12-18T09:18:42;16.53;;;8.83;;
13408;SDS011;6775;49.574;11.170;2022-12-18T09:21:11;21.97;;;9.87;;
13408;SDS011;6775;49.574;11.170;2022-12-18T09:23:41;22.17;;;10.13;;
13408;SDS011;6775;49.574;11.170;2022-12-18T09:26:09;20.77;;;8.20;;
13408;SDS011;6775;49.574;11.170;2022-12-18T09:28:39;21.40;;;8.70;;
13408;SDS011;6775;49.574;11.170;2022-12-18T09:31:08;19.10;;;8.03;;
13408;SDS011;6775;49.574;11.170;2022-12-18T09:33:38;17.43;;;8.80;;
13408;SDS011;6775;49.574;11.170;2022-12-18T09:36:07;17.80;;;8.73;;
13408;SDS011;6775;49.574;11.170;2022-12-18T09:38:41;17.40;;;8.07;;
13408;SDS011;6775;49.574;11.170;2022-12-18T09:41:15;19.00;;;9.07;;
13408;SDS011;6775;49.574;11.170;2022-12-18T09:43:55;19.83;;;8.33;;
13408;SDS011;6775;49.574;11.170;2022-12-18T09:46:27;18.73;;;8.57;;
13408;SDS011;6775;49.574;11.170;2022-12-18T09:48:58;19.37;;;8.67;;
13408;SDS011;6775;49.574;11.170;2022-12-18T09:51:33;17.03;;;7.87;;
13408;SDS011;6775;49.574;11.170;2022-12-18T09:54:05;19.03;;;8.67;;
13408;SDS011;6775;49.574;11.170;2022-12-18T09:56:39;21.37;;;9.63;;
13408;SDS011;6775;49.574;11.170;2022-12-18T09:59:16;18.80;;;8.80;;
13408;SDS011;6775;49.574;11.170;2022-12-18T10:01:48;15.57;;;7.80;;
13408;SDS011;6775;49.574;11.170;2022-12-18T10:04:16;16.27;;;8.70;;
13408;SDS011;6775;49.574;11.170;2022-12-18T10:06:46;20.83;;;7.97;;
13408;SDS011;6775;49.574;11.170;2022-12-18T10:09:24;12.47;;;7.10;;
13408;SDS011;6775;49.574;11.170;2022-12-18T10:12:00;20.00;;;8.53;;
13408;SDS011;6775;49.574;11.170;2022-12-18T10:14:39;20.50;;;8.40;;
13408;SDS011;6775;49.574;11.170;2022-12-18T10:17:17;18.87;;;8.50;;
13408;SDS011;6775;49.574;11.170;2022-12-18T10:19:51;16.47;;;7.80;;
13408;SDS011;6775;49.574;11.170;2022-12-18T10:22:30;17.10;;;8.27;;
13408;SDS011;6775;49.574;11.170;2022-12-18T10:25:15;21.13;;;8.00;;
13408;SDS011;6775;49.574;11.170;2022-12-18T10:27:51;22.30;;;7.93;;
13408;SDS011;6775;49.574;11.170;2022-12-18T10:30:23;17.90;;;8.53;;
13408;SDS011;6775;49.574;11.170;2022-12-18T10:32:53;17.83;;;8.93;;
13408;SDS011;6775;49.574;11.170;2022-12-18T10:35:23;18.40;;;8.63;;
13408;SDS011;6775;49.574;11.170;2022-12-18T10:37:59;20.40;;;8.13;;
13408;SDS011;6775;49.574;11.170;2022-12-18T10:40:32;18.23;;;8.10;;
13408;SDS011;6775;49.574;11.170;2022-12-18T10:43:15;16.13;;;7.40;;
13408;SDS011;6775;49.574;11.170;2022-12-18T10:45:59;18.80;;;8.17;;
13408;SDS011;6775;49.574;11.170;2022-12-18T10:48:30;21.30;;;7.93;;
13408;SDS011;6775;49.574;11.170;2022-12-18T10:50:58;16.60;;;7.83;;
13408;SDS011;6775;49.574;11.170;2022-12-18T10:53:38;15.90;;;7.87;;
13408;SDS011;6775;49.574;11.170;2022-12-18T10:56:09;19.57;;;9.00;;
13408;SDS011;6775;49.574;11.170;2022-12-18T10:58:37;18.57;;;8.50;;
13408;SDS011;6775;49.574;11.170;2022-12-18T11:01:09;15.83;;;7.90;;
13408;SDS011;6775;49.574;11.170;2022-12-18T11:03:39;17.93;;;8.80;;
13408;SDS011;6775;49.574;11.170;2022-12-18T11:06:09;20.60;;;8.90;;
13408;SDS011;6775;49.574;11.170;2022-12-18T11:08:39;19.47;;;8.83;;
13408;SDS011;6775;49.574;11.170;2022-12-18T11:11:15;18.70;;;7.90;;
13408;SDS011;6775;49.574;11.170;2022-12-18T11:13:50;14.90;;;7.73;;
13408;SDS011;6775;49.574;11.170;2022-12-18T11:16:26;17.97;;;8.27;;
13408;SDS011;6775;49.574;11.170;2022-12-18T11:19:07;17.83;;;8.13;;
13408;SDS011;6775;49.574;11.170;2022-12-18T11:21:40;18.63;;;8.23;;
13408;SDS011;6775;49.574;11.170;2022-12-18T11:24:15;21.27;;;8.47;;
13408;SDS011;6775;49.574;11.170;2022-12-18T11:26:48;19.70;;;8.77;;
13408;SDS011;6775;49.574;11.170;2022-12-18T11:29:27;18.53;;;8.37;;
13408;SDS011;6775;49.574;11.170;2022-12-18T11:35:03;16.13;;;7.70;;
13408;SDS011;6775;49.574;11.170;2022-12-18T11:37:38;18.83;;;7.93;;
13408;SDS011;6775;49.574;11.170;2022-12-18T11:40:10;18.43;;;7.93;;
13408;SDS011;6775;49.574;11.170;2022-12-18T11:42:42;16.50;;;7.77;;
13408;SDS011;6775;49.574;11.170;2022-12-18T11:45:22;20.77;;;9.10;;
13408;SDS011;6775;49.574;11.170;2022-12-18T11:47:57;17.77;;;7.97;;
13408;SDS011;6775;49.574;11.170;2022-12-18T11:50:31;17.90;;;8.97;;
13408;SDS011;6775;49.574;11.170;2022-12-18T11:53:09;18.60;;;8.90;;
13408;SDS011;6775;49.574;11.170;2022-12-18T11:55:40;17.67;;;8.63;;
13408;SDS011;6775;49.574;11.170;2022-12-18T11:58:18;16.87;;;8.40;;
13408;SDS011;6775;49.574;11.170;2022-12-18T12:00:59;12.10;;;7.03;;
13408;SDS011;6775;49.574;11.170;2022-12-18T12:03:43;14.73;;;7.50;;
13408;SDS011;6775;49.574;11.170;2022-12-18T12:06:31;18.47;;;7.37;;
13408;SDS011;6775;49.574;11.170;2022-12-18T12:09:10;15.77;;;8.17;;
13408;SDS011;6775;49.574;11.170;2022-12-18T12:11:47;12.83;;;6.57;;
13408;SDS011;6775;49.574;11.170;2022-12-18T12:14:34;15.27;;;6.73;;
13408;SDS011;6775;49.574;11.170;2022-12-18T12:17:13;16.60;;;7.97;;
13408;SDS011;6775;49.574;11.170;2022-12-18T12:19:53;14.97;;;7.20;;
13408;SDS011;6775;49.574;11.170;2022-12-18T12:22:31;15.90;;;7.50;;
13408;SDS011;6775;49.574;11.170;2022-12-18T12:27:58;14.30;;;7.73;;
13408;SDS011;6775;49.574;11.170;2022-12-18T12:30:39;16.17;;;7.63;;
13408;SDS011;6775;49.574;11.170;2022-12-18T12:33:22;13.77;;;7.37;;
13408;SDS011;6775;49.574;11.170;2022-12-18T12:36:00;17.77;;;7.63;;
13408;SDS011;6775;49.574;11.170;2022-12-18T12:38:37;17.57;;;8.47;;
13408;SDS011;6775;49.574;11.170;2022-12-18T12:41:17;13.93;;;6.83;;
13408;SDS011;6775;49.574;11.170;2022-12-18T12:44:06;17.80;;;7.47;;
13408;SDS011;6775;49.574;11.170;2022-12-18T12:46:36;17.53;;;8.13;;
13408;SDS011;6775;49.574;11.170;2022-12-18T12:49:09;14.43;;;7.43;;
13408;SDS011;6775;49.574;11.170;2022-12-18T12:51:43;16.27;;;8.10;;
13408;SDS011;6775;49.574;11.170;2022-12-18T12:54:15;14.67;;;7.57;;
13408;SDS011;6775;49.574;11.170;2022-12-18T12:56:48;19.23;;;8.03;;
13408;SDS011;6775;49.574;11.170;2022-12-18T12:59:24;20.43;;;8.70;;
13408;SDS011;6775;49.574;11.170;2022-12-18T13:02:03;15.27;;;8.10;;
13408;SDS011;6775;49.574;11.170;2022-12-18T13:04:39;15.53;;;8.30;;
13408;SDS011;6775;49.574;11.170;2022-12-18T13:07:15;15.17;;;7.40;;
13408;SDS011;6775;49.574;11.170;2022-12-18T13:13:12;17.00;;;7.23;;
13408;SDS011;6775;49.574;11.170;2022-12-18T13:16:03;19.10;;;7.83;;
13408;SDS011;6775;49.574;11.170;2022-12-18T13:18:33;17.10;;;7.93;;
13408;SDS011;6775;49.574;11.170;2022-12-18T13:21:03;13.00;;;8.00;;
13408;SDS011;6775;49.574;11.170;2022-12-18T13:23:40;18.17;;;8.67;;
13408;SDS011;6775;49.574;11.170;2022-12-18T13:29:03;15.73;;;7.27;;
13408;SDS011;6775;49.574;11.170;2022-12-18T13:34:28;16.37;;;7.23;;
13408;SDS011;6775;49.574;11.170;2022-12-18T13:40:01;17.77;;;7.50;;
13408;SDS011;6775;49.574;11.170;2022-12-18T13:42:47;15.93;;;7.90;;
13408;SDS011;6775;49.574;11.170;2022-12-18T13:45:39;14.00;;;7.97;;
13408;SDS011;6775;49.574;11.170;2022-12-18T13:48:23;16.53;;;8.00;;
13408;SDS011;6775;49.574;11.170;2022-12-18T13:50:53;16.53;;;8.47;;
13408;SDS011;6775;49.574;11.170;2022-12-18T13:53:26;16.10;;;8.00;;
13408;SDS011;6775;49.574;11.170;2022-12-18T13:55:57;17.37;;;7.93;;
13408;SDS011;6775;49.574;11.170;2022-12-18T13:58:26;14.43;;;7.60;;
13408;SDS011;6775;49.574;11.170;2022-12-18T14:00:54;12.93;;;7.50;;
13408;SDS011;6775;49.574;11.170;2022-12-18T14:03:24;14.63;;;8.37;;
13408;SDS011;6775;49.574;11.170;2022-12-18T14:05:55;15.80;;;7.13;;
13408;SDS011;6775;49.574;11.170;2022-12-18T14:08:31;11.47;;;7.20;;
13408;SDS011;6775;49.574;11.170;2022-12-18T14:11:04;16.73;;;6.97;;
13408;SDS011;6775;49.574;11.170;2022-12-18T14:13:37;14.20;;;7.20;;
13408;SDS011;6775;49.574;11.170;2022-12-18T14:16:11;18.87;;;7.67;;
13408;SDS011;6775;49.574;11.170;2022-12-18T14:18:43;13.57;;;6.70;;
13408;SDS011;6775;49.574;11.170;2022-12-18T14:24:04;15.20;;;6.97;;
13408;SDS011;6775;49.574;11.170;2022-12-18T14:26:43;18.13;;;8.20;;
13408;SDS011;6775;49.574;11.170;2022-12-18T14:29:23;16.17;;;7.97;;
13408;SDS011;6775;49.574;11.170;2022-12-18T14:32:05;12.70;;;6.40;;
13408;SDS011;6775;49.574;11.170;2022-12-18T14:34:43;15.43;;;7.33;;
13408;SDS011;6775;49.574;11.170;2022-12-18T14:37:12;15.50;;;7.70;;
13408;SDS011;6775;49.574;11.170;2022-12-18T14:39:51;17.20;;;6.90;;
13408;SDS011;6775;49.574;11.170;2022-12-18T14:42:22;17.17;;;8.37;;
13408;SDS011;6775;49.574;11.170;2022-12-18T14:48:07;14.73;;;7.73;;
13408;SDS011;6775;49.574;11.170;2022-12-18T14:50:38;15.53;;;7.23;;
13408;SDS011;6775;49.574;11.170;2022-12-18T14:53:15;14.53;;;7.63;;
13408;SDS011;6775;49.574;11.170;2022-12-18T14:55:48;14.90;;;7.80;;
13408;SDS011;6775;49.574;11.170;2022-12-18T14:58:18;13.47;;;6.73;;
13408;SDS011;6775;49.574;11.170;2022-12-18T15:00:46;14.27;;;7.43;;
13408;SDS011;6775;49.574;11.170;2022-12-18T15:03:15;14.33;;;6.50;;
13408;SDS011;6775;49.574;11.170;2022-12-18T15:05:46;12.90;;;7.53;;
13408;SDS011;6775;49.574;11.170;2022-12-18T15:08:27;14.30;;;6.90;;
13408;SDS011;6775;49.574;11.170;2022-12-18T15:10:58;12.00;;;7.00;;
13408;SDS011;6775;49.574;11.170;2022-12-18T15:13:28;14.37;;;7.03;;
13408;SDS011;6775;49.574;11.170;2022-12-18T15:15:57;13.60;;;7.00;;
13408;SDS011;6775;49.574;11.170;2022-12-18T15:18:29;12.20;;;6.33;;
13408;SDS011;6775;49.574;11.170;2022-12-18T15:21:03;12.90;;;7.27;;
13408;SDS011;6775;49.574;11.170;2022-12-18T15:23:36;13.17;;;6.63;;
13408;SDS011;6775;49.574;11.170;2022-12-18T15:26:13;10.97;;;6.37;;